createdAt,value
2018-11-04T00:00:11.654Z,60.63
2018-11-04T00:00:43.244Z,60.83
2018-11-04T00:01:14.838Z,60.79
2018-11-04T00:01:46.503Z,60.91
2018-11-04T00:02:18.074Z,60.95
2018-11-04T00:02:49.660Z,61.05
2018-11-04T00:03:21.252Z,61.10
2018-11-04T00:03:52.852Z,61.16
2018-11-04T00:04:24.434Z,61.05
2018-11-04T00:04:56.023Z,61.10
2018-11-04T00:05:27.616Z,61.11
2018-11-04T00:05:59.234Z,61.07
2018-11-04T00:06:30.842Z,61.10
2018-11-04T00:07:02.450Z,61.19
2018-11-04T00:07:34.054Z,61.16
2018-11-04T00:08:05.650Z,61.16
2018-11-04T00:08:37.239Z,61.11
2018-11-04T00:09:08.828Z,61.16
2018-11-04T00:09:40.415Z,61.16
2018-11-04T00:10:12.004Z,61.17
2018-11-04T00:10:43.602Z,61.13
2018-11-04T00:11:15.202Z,61.15
2018-11-04T00:11:46.806Z,61.19
2018-11-04T00:12:18.406Z,61.14
2018-11-04T00:12:49.999Z,61.20
2018-11-04T00:13:21.666Z,61.09
2018-11-04T00:13:53.206Z,61.18
2018-11-04T00:14:24.811Z,61.17
2018-11-04T00:14:56.461Z,61.15
2018-11-04T00:15:28.007Z,61.12
2018-11-04T00:15:59.610Z,61.18
2018-11-04T00:16:31.217Z,61.14
2018-11-04T00:17:02.850Z,61.13
2018-11-04T00:17:34.440Z,61.15
2018-11-04T00:18:06.028Z,61.04
2018-11-04T00:18:37.624Z,61.10
2018-11-04T00:19:09.222Z,61.12
2018-11-04T00:19:40.812Z,61.09
2018-11-04T00:20:12.414Z,61.00
2018-11-04T00:20:44.004Z,61.02
2018-11-04T00:21:15.588Z,60.94
2018-11-04T00:21:47.193Z,61.05
2018-11-04T00:22:18.813Z,61.02
2018-11-04T00:22:50.429Z,60.98
2018-11-04T00:23:22.130Z,60.93
2018-11-04T00:23:53.716Z,60.94
2018-11-04T00:24:25.312Z,60.93
2018-11-04T00:24:56.903Z,60.89
2018-11-04T00:25:28.491Z,60.88
2018-11-04T00:26:00.076Z,60.97
2018-11-04T00:26:31.681Z,60.87
2018-11-04T00:27:03.303Z,61.04
2018-11-04T00:27:34.899Z,61.02
2018-11-04T00:28:06.495Z,61.05
2018-11-04T00:28:38.098Z,60.98
2018-11-04T00:29:09.681Z,60.99
2018-11-04T00:29:41.285Z,61.08
2018-11-04T00:30:12.885Z,61.05
2018-11-04T00:30:44.476Z,61.10
2018-11-04T00:31:16.082Z,61.13
2018-11-04T00:31:47.686Z,61.00
2018-11-04T00:32:19.315Z,61.00
2018-11-04T00:32:50.918Z,61.11
2018-11-04T00:33:22.519Z,61.15
2018-11-04T00:33:54.101Z,61.18
2018-11-04T00:34:25.700Z,61.16
2018-11-04T00:34:57.292Z,61.28
2018-11-04T00:35:28.898Z,61.29
2018-11-04T00:36:00.488Z,61.37
2018-11-04T00:36:32.090Z,61.37
2018-11-04T00:37:03.712Z,61.45
2018-11-04T00:37:35.318Z,61.51
2018-11-04T00:38:06.917Z,61.49
2018-11-04T00:38:38.514Z,61.48
2018-11-04T00:39:10.105Z,61.59
2018-11-04T00:39:41.696Z,61.81
2018-11-04T00:40:13.294Z,61.68
2018-11-04T00:40:44.894Z,61.72
2018-11-04T00:41:16.474Z,61.83
2018-11-04T00:41:48.061Z,61.98
2018-11-04T00:42:19.689Z,61.77
2018-11-04T00:42:51.276Z,61.92
2018-11-04T00:43:22.872Z,61.86
2018-11-04T00:43:54.459Z,61.91
2018-11-04T00:44:26.043Z,61.80
2018-11-04T00:44:57.649Z,61.75
2018-11-04T00:45:29.412Z,61.86
2018-11-04T00:46:00.872Z,61.83
2018-11-04T00:46:32.493Z,61.80
2018-11-04T00:47:04.097Z,61.70
2018-11-04T00:47:35.707Z,61.84
2018-11-04T00:48:07.292Z,61.87
2018-11-04T00:48:38.890Z,61.90
2018-11-04T00:49:10.484Z,61.84
2018-11-04T00:49:42.069Z,61.79
2018-11-04T00:50:13.661Z,61.82
2018-11-04T00:50:45.261Z,62.04
2018-11-04T00:51:16.872Z,62.04
2018-11-04T00:51:48.464Z,61.92
2018-11-04T00:52:20.090Z,61.99
2018-11-04T00:52:51.679Z,62.03
2018-11-04T00:53:23.282Z,62.05
2018-11-04T00:53:54.872Z,62.00
2018-11-04T00:54:26.477Z,62.17
2018-11-04T00:54:58.064Z,62.22
2018-11-04T00:55:29.652Z,62.09
2018-11-04T00:56:01.245Z,62.17
2018-11-04T00:56:32.844Z,62.18
2018-11-04T00:57:04.432Z,62.14
2018-11-04T00:57:36.052Z,62.08
2018-11-04T00:58:07.640Z,62.21
2018-11-04T00:58:39.228Z,62.24
2018-11-04T00:59:10.846Z,62.09
2018-11-04T00:59:42.436Z,62.19
2018-11-04T01:00:14.023Z,62.13
2018-11-04T01:00:45.630Z,62.25
2018-11-04T01:01:17.231Z,62.19
2018-11-04T01:01:48.827Z,62.23
2018-11-04T01:02:20.472Z,62.29
2018-11-04T01:02:52.074Z,62.20
2018-11-04T01:03:23.663Z,62.32
2018-11-04T01:03:55.238Z,62.25
2018-11-04T01:04:26.843Z,62.39
2018-11-04T01:04:58.445Z,62.51
2018-11-04T01:05:30.050Z,62.38
2018-11-04T01:06:01.630Z,62.47
2018-11-04T01:06:33.206Z,62.52
2018-11-04T01:07:04.805Z,62.36
2018-11-04T01:07:36.413Z,62.48
2018-11-04T01:08:08.000Z,62.51
2018-11-04T01:08:39.598Z,62.52
2018-11-04T01:09:11.241Z,62.59
2018-11-04T01:09:42.806Z,62.66
2018-11-04T01:10:14.398Z,62.66
2018-11-04T01:10:45.988Z,62.81
2018-11-04T01:11:17.580Z,62.85
2018-11-04T01:11:49.197Z,62.77
2018-11-04T01:12:20.799Z,62.73
2018-11-04T01:12:52.407Z,62.83
2018-11-04T01:13:24.003Z,62.82
2018-11-04T01:13:55.613Z,62.85
2018-11-04T01:14:27.218Z,62.94
2018-11-04T01:14:58.826Z,62.79
2018-11-04T01:15:30.419Z,62.89
2018-11-04T01:16:01.994Z,62.92
2018-11-04T01:16:33.583Z,62.92
2018-11-04T01:17:05.185Z,62.95
2018-11-04T01:17:36.813Z,63.10
2018-11-04T01:18:08.407Z,63.07
2018-11-04T01:18:39.991Z,63.08
2018-11-04T01:19:11.583Z,63.14
2018-11-04T01:19:43.175Z,63.17
2018-11-04T01:20:14.777Z,63.18
2018-11-04T01:20:46.379Z,63.24
2018-11-04T01:21:17.982Z,63.25
2018-11-04T01:21:49.572Z,63.28
2018-11-04T01:22:21.160Z,63.26
2018-11-04T01:22:52.776Z,63.38
2018-11-04T01:23:24.378Z,63.39
2018-11-04T01:23:55.985Z,63.39
2018-11-04T01:24:27.635Z,63.38
2018-11-04T01:24:59.223Z,63.46
2018-11-04T01:25:30.838Z,63.51
2018-11-04T01:26:02.417Z,63.60
2018-11-04T01:26:34.007Z,63.52
2018-11-04T01:27:05.610Z,63.56
2018-11-04T01:27:37.228Z,63.63
2018-11-04T01:28:08.816Z,63.70
2018-11-04T01:28:40.419Z,63.75
2018-11-04T01:29:12.049Z,63.97
2018-11-04T01:29:43.645Z,63.87
2018-11-04T01:30:15.249Z,64.00
2018-11-04T01:30:46.844Z,64.08
2018-11-04T01:31:18.423Z,64.10
2018-11-04T01:31:50.014Z,64.18
2018-11-04T01:32:21.629Z,64.32
2018-11-04T01:32:53.252Z,64.37
2018-11-04T01:33:24.842Z,64.31
2018-11-04T01:33:56.427Z,64.32
2018-11-04T01:34:28.011Z,64.43
2018-11-04T01:34:59.600Z,64.50
2018-11-04T01:35:31.192Z,64.47
2018-11-04T01:36:02.795Z,64.54
2018-11-04T01:36:34.398Z,64.57
2018-11-04T01:37:05.992Z,64.64
2018-11-04T01:37:37.602Z,64.58
2018-11-04T01:38:09.206Z,64.77
2018-11-04T01:38:40.800Z,64.91
2018-11-04T01:39:12.389Z,64.81
2018-11-04T01:39:43.994Z,64.80
2018-11-04T01:40:15.584Z,64.87
2018-11-04T01:40:47.175Z,65.02
2018-11-04T01:41:18.773Z,64.97
2018-11-04T01:41:50.378Z,64.94
2018-11-04T01:42:21.982Z,64.98
2018-11-04T01:42:53.614Z,65.09
2018-11-04T01:43:25.214Z,65.24
2018-11-04T01:43:56.813Z,65.07
2018-11-04T01:44:28.414Z,65.05
2018-11-04T01:45:00.013Z,64.98
2018-11-04T01:45:31.622Z,65.02
2018-11-04T01:46:03.230Z,65.02
2018-11-04T01:46:34.823Z,65.15
2018-11-04T01:47:06.412Z,65.14
2018-11-04T01:47:38.004Z,65.04
2018-11-04T01:48:09.626Z,65.26
2018-11-04T01:48:41.216Z,65.52
2018-11-04T01:49:12.804Z,65.37
2018-11-04T01:49:44.392Z,65.25
2018-11-04T01:50:15.994Z,65.37
2018-11-04T01:50:47.611Z,65.04
2018-11-04T01:51:19.196Z,65.49
2018-11-04T01:51:50.775Z,65.19
2018-11-04T01:52:22.382Z,65.28
2018-11-04T01:52:54.009Z,65.24
2018-11-04T01:53:25.586Z,65.22
2018-11-04T01:53:57.191Z,66.22
2018-11-04T01:54:28.780Z,66.43
2018-11-04T01:55:00.363Z,66.26
2018-11-04T01:55:31.947Z,66.08
2018-11-04T01:56:03.546Z,65.68
2018-11-04T01:56:35.140Z,65.66
2018-11-04T01:57:06.723Z,66.03
2018-11-04T01:57:38.301Z,65.78
2018-11-04T01:58:09.902Z,66.26
2018-11-04T01:58:41.506Z,66.19
2018-11-04T01:59:13.100Z,66.04
2018-11-04T01:59:44.674Z,66.25
2018-11-04T02:00:16.264Z,66.31
2018-11-04T02:00:47.866Z,66.41
2018-11-04T02:01:19.465Z,66.62
2018-11-04T02:01:51.060Z,66.66
2018-11-04T02:02:22.702Z,66.38
2018-11-04T02:02:54.295Z,66.32
2018-11-04T02:03:25.870Z,66.34
2018-11-04T02:03:57.464Z,66.22
2018-11-04T02:04:29.057Z,66.57
2018-11-04T02:05:00.638Z,66.23
2018-11-04T02:05:32.229Z,66.73
2018-11-04T02:06:03.819Z,66.76
2018-11-04T02:06:35.404Z,66.82
2018-11-04T02:07:06.985Z,66.53
2018-11-04T02:07:38.590Z,66.71
2018-11-04T02:08:10.201Z,66.22
2018-11-04T02:08:41.782Z,66.39
2018-11-04T02:09:13.369Z,66.45
2018-11-04T02:09:44.994Z,66.55
2018-11-04T02:10:16.602Z,66.28
2018-11-04T02:10:48.205Z,66.36
2018-11-04T02:11:19.786Z,66.31
2018-11-04T02:11:51.391Z,66.26
2018-11-04T02:12:22.970Z,66.47
2018-11-04T02:12:54.556Z,66.29
2018-11-04T02:13:26.162Z,66.45
2018-11-04T02:13:57.770Z,66.13
2018-11-04T02:14:29.363Z,66.00
2018-11-04T02:15:00.953Z,66.38
2018-11-04T02:15:32.620Z,66.10
2018-11-04T02:16:04.209Z,66.32
2018-11-04T02:16:35.800Z,66.72
2018-11-04T02:17:07.388Z,66.29
2018-11-04T02:17:38.981Z,66.51
2018-11-04T02:18:10.611Z,66.61
2018-11-04T02:18:42.210Z,66.39
2018-11-04T02:19:13.804Z,66.57
2018-11-04T02:19:45.407Z,66.58
2018-11-04T02:20:17.011Z,66.83
2018-11-04T02:20:48.610Z,66.63
2018-11-04T02:21:20.218Z,66.17
2018-11-04T02:21:51.797Z,66.23
2018-11-04T02:22:23.388Z,66.03
2018-11-04T02:22:54.991Z,66.24
2018-11-04T02:23:26.608Z,66.21
2018-11-04T02:23:58.199Z,66.07
2018-11-04T02:24:29.791Z,66.20
2018-11-04T02:25:02.092Z,66.07
2018-11-04T02:25:33.698Z,66.16
2018-11-04T02:26:05.301Z,65.96
2018-11-04T02:26:36.891Z,66.08
2018-11-04T02:27:08.494Z,66.11
2018-11-04T02:27:40.088Z,65.97
2018-11-04T02:28:11.680Z,65.93
2018-11-04T02:28:43.312Z,66.09
2018-11-04T02:29:14.922Z,66.02
2018-11-04T02:29:46.530Z,65.92
2018-11-04T02:30:18.139Z,66.12
2018-11-04T02:30:49.732Z,66.26
2018-11-04T02:31:21.320Z,66.12
2018-11-04T02:31:52.907Z,66.01
2018-11-04T02:32:24.502Z,66.21
2018-11-04T02:32:56.100Z,66.14
2018-11-04T02:33:27.717Z,66.28
2018-11-04T02:33:59.318Z,66.32
2018-11-04T02:34:30.914Z,66.14
2018-11-04T02:35:02.522Z,66.28
2018-11-04T02:35:34.130Z,66.13
2018-11-04T02:36:05.707Z,66.48
2018-11-04T02:36:37.296Z,66.37
2018-11-04T02:37:08.902Z,66.27
2018-11-04T02:37:40.514Z,66.25
2018-11-04T02:38:12.101Z,66.51
2018-11-04T02:38:43.715Z,66.12
2018-11-04T02:39:15.313Z,66.27
2018-11-04T02:39:46.908Z,66.26
2018-11-04T02:40:18.502Z,66.51
2018-11-04T02:40:50.107Z,66.55
2018-11-04T02:41:21.695Z,66.58
2018-11-04T02:41:53.302Z,66.51
2018-11-04T02:42:24.898Z,66.42
2018-11-04T02:42:56.502Z,66.33
2018-11-04T02:43:28.115Z,66.19
2018-11-04T02:43:59.708Z,66.49
2018-11-04T02:44:31.320Z,66.22
2018-11-04T02:45:02.912Z,66.37
2018-11-04T02:45:34.501Z,66.33
2018-11-04T02:46:06.102Z,66.37
2018-11-04T02:46:37.710Z,66.25
2018-11-04T02:47:09.416Z,66.29
2018-11-04T02:47:40.956Z,66.15
2018-11-04T02:48:12.557Z,66.15
2018-11-04T02:48:44.181Z,66.08
2018-11-04T02:49:15.777Z,66.03
2018-11-04T02:49:47.368Z,66.10
2018-11-04T02:50:18.959Z,66.16
2018-11-04T02:50:50.557Z,66.02
2018-11-04T02:51:22.152Z,66.37
2018-11-04T02:51:53.734Z,66.10
2018-11-04T02:52:25.320Z,66.20
2018-11-04T02:52:56.908Z,66.17
2018-11-04T02:53:28.496Z,66.26
2018-11-04T02:54:00.112Z,66.30
2018-11-04T02:54:31.714Z,66.21
2018-11-04T02:55:03.318Z,66.11
2018-11-04T02:55:34.920Z,66.21
2018-11-04T02:56:06.517Z,66.37
2018-11-04T02:56:38.104Z,66.37
2018-11-04T02:57:09.691Z,66.31
2018-11-04T02:57:41.274Z,66.32
2018-11-04T02:58:12.883Z,66.23
2018-11-04T02:58:44.504Z,66.34
2018-11-04T02:59:16.107Z,66.26
2018-11-04T02:59:47.713Z,66.25
2018-11-04T03:00:19.313Z,66.20
2018-11-04T03:00:50.918Z,66.23
2018-11-04T03:01:22.514Z,66.26
2018-11-04T03:01:54.175Z,66.19
2018-11-04T03:02:25.706Z,66.19
2018-11-04T03:02:57.310Z,66.10
2018-11-04T03:03:28.900Z,66.20
2018-11-04T03:04:00.516Z,66.23
2018-11-04T03:04:32.122Z,66.10
2018-11-04T03:05:03.712Z,66.07
2018-11-04T03:05:35.310Z,66.03
2018-11-04T03:06:06.914Z,66.06
2018-11-04T03:06:38.517Z,65.95
2018-11-04T03:07:10.116Z,66.05
2018-11-04T03:07:41.718Z,65.97
2018-11-04T03:08:13.320Z,66.01
2018-11-04T03:08:44.959Z,66.10
2018-11-04T03:09:16.563Z,65.99
2018-11-04T03:09:48.164Z,65.93
2018-11-04T03:10:19.758Z,65.90
2018-11-04T03:10:51.336Z,66.03
2018-11-04T03:11:22.948Z,65.90
2018-11-04T03:11:54.554Z,65.84
2018-11-04T03:12:26.151Z,65.81
2018-11-04T03:12:57.740Z,65.90
2018-11-04T03:13:29.332Z,65.88
2018-11-04T03:14:00.966Z,65.97
2018-11-04T03:14:32.557Z,65.77
2018-11-04T03:15:04.162Z,65.92
2018-11-04T03:15:35.742Z,65.74
2018-11-04T03:16:07.338Z,65.73
2018-11-04T03:16:38.914Z,65.80
2018-11-04T03:17:10.509Z,65.75
2018-11-04T03:17:42.096Z,65.75
2018-11-04T03:18:13.686Z,65.86
2018-11-04T03:18:45.263Z,65.98
2018-11-04T03:19:16.898Z,65.85
2018-11-04T03:19:48.500Z,65.82
2018-11-04T03:20:20.110Z,65.70
2018-11-04T03:20:51.711Z,65.84
2018-11-04T03:21:23.312Z,65.81
2018-11-04T03:21:54.900Z,65.69
2018-11-04T03:22:26.503Z,65.68
2018-11-04T03:22:58.106Z,65.68
2018-11-04T03:23:29.700Z,65.73
2018-11-04T03:24:01.320Z,66.03
2018-11-04T03:24:32.964Z,65.73
2018-11-04T03:25:04.540Z,65.79
2018-11-04T03:25:36.128Z,65.72
2018-11-04T03:26:07.717Z,65.90
2018-11-04T03:26:39.314Z,65.85
2018-11-04T03:27:10.934Z,65.77
2018-11-04T03:27:42.517Z,65.73
2018-11-04T03:28:14.117Z,65.68
2018-11-04T03:28:45.708Z,65.65
2018-11-04T03:29:17.336Z,65.76
2018-11-04T03:29:48.928Z,65.71
2018-11-04T03:30:20.515Z,65.66
2018-11-04T03:30:52.108Z,65.66
2018-11-04T03:31:23.706Z,65.57
2018-11-04T03:31:55.318Z,65.57
2018-11-04T03:32:26.910Z,65.61
2018-11-04T03:32:58.504Z,65.60
2018-11-04T03:33:30.094Z,65.46
2018-11-04T03:34:01.712Z,65.34
2018-11-04T03:34:33.308Z,65.35
2018-11-04T03:35:04.904Z,65.47
2018-11-04T03:35:36.506Z,65.32
2018-11-04T03:36:08.109Z,65.40
2018-11-04T03:36:39.709Z,65.40
2018-11-04T03:37:11.317Z,65.34
2018-11-04T03:37:42.927Z,65.29
2018-11-04T03:38:14.516Z,65.32
2018-11-04T03:38:46.104Z,65.20
2018-11-04T03:39:17.716Z,65.16
2018-11-04T03:39:49.319Z,65.16
2018-11-04T03:40:20.920Z,65.12
2018-11-04T03:40:52.508Z,65.36
2018-11-04T03:41:24.110Z,65.41
2018-11-04T03:41:55.716Z,65.55
2018-11-04T03:42:27.313Z,65.46
2018-11-04T03:42:58.904Z,65.25
2018-11-04T03:43:30.492Z,65.34
2018-11-04T03:44:02.072Z,65.32
2018-11-04T03:44:33.674Z,65.32
2018-11-04T03:45:05.274Z,65.47
2018-11-04T03:45:36.868Z,65.46
2018-11-04T03:46:08.459Z,65.50
2018-11-04T03:46:40.043Z,65.42
2018-11-04T03:47:11.634Z,65.55
2018-11-04T03:47:43.241Z,65.43
2018-11-04T03:48:14.829Z,65.42
2018-11-04T03:48:46.437Z,65.37
2018-11-04T03:49:18.061Z,65.23
2018-11-04T03:49:49.656Z,65.30
2018-11-04T03:50:21.244Z,65.49
2018-11-04T03:50:52.833Z,65.14
2018-11-04T03:51:24.440Z,65.36
2018-11-04T03:51:56.046Z,65.38
2018-11-04T03:52:27.655Z,65.31
2018-11-04T03:52:59.258Z,65.43
2018-11-04T03:53:30.847Z,65.34
2018-11-04T03:54:02.432Z,65.36
2018-11-04T03:54:34.024Z,65.52
2018-11-04T03:55:05.619Z,65.58
2018-11-04T03:55:37.203Z,65.35
2018-11-04T03:56:08.793Z,65.47
2018-11-04T03:56:40.382Z,65.25
2018-11-04T03:57:11.982Z,65.36
2018-11-04T03:57:43.595Z,65.47
2018-11-04T03:58:15.179Z,65.29
2018-11-04T03:58:46.772Z,65.36
2018-11-04T03:59:18.388Z,65.32
2018-11-04T03:59:49.990Z,65.43
2018-11-04T04:00:21.602Z,65.39
2018-11-04T04:00:53.209Z,65.31
2018-11-04T04:01:24.803Z,65.48
2018-11-04T04:01:56.384Z,65.30
2018-11-04T04:02:27.975Z,65.50
2018-11-04T04:02:59.567Z,65.64
2018-11-04T04:03:31.177Z,65.69
2018-11-04T04:04:02.758Z,65.35
2018-11-04T04:04:34.362Z,65.58
2018-11-04T04:05:05.952Z,65.48
2018-11-04T04:05:37.555Z,65.58
2018-11-04T04:06:09.144Z,65.78
2018-11-04T04:06:40.728Z,65.66
2018-11-04T04:07:12.331Z,65.74
2018-11-04T04:07:43.938Z,65.98
2018-11-04T04:08:15.549Z,66.02
2018-11-04T04:08:47.153Z,66.13
2018-11-04T04:09:18.734Z,66.06
2018-11-04T04:09:50.325Z,66.22
2018-11-04T04:10:21.912Z,66.20
2018-11-04T04:10:53.499Z,66.25
2018-11-04T04:11:25.078Z,66.29
2018-11-04T04:11:56.657Z,66.32
2018-11-04T04:12:28.247Z,66.28
2018-11-04T04:12:59.850Z,66.38
2018-11-04T04:13:31.462Z,66.76
2018-11-04T04:14:03.052Z,66.75
2018-11-04T04:14:34.678Z,66.72
2018-11-04T04:15:06.273Z,66.81
2018-11-04T04:15:37.878Z,67.18
2018-11-04T04:16:09.468Z,67.00
2018-11-04T04:16:41.056Z,67.02
2018-11-04T04:17:12.657Z,67.11
2018-11-04T04:17:44.292Z,67.23
2018-11-04T04:18:15.866Z,67.27
2018-11-04T04:18:47.452Z,67.33
2018-11-04T04:19:19.061Z,67.49
2018-11-04T04:19:50.679Z,67.54
2018-11-04T04:20:22.286Z,67.52
2018-11-04T04:20:53.890Z,67.47
2018-11-04T04:21:25.493Z,67.43
2018-11-04T04:21:57.097Z,67.43
2018-11-04T04:22:28.702Z,67.57
2018-11-04T04:23:00.282Z,67.53
2018-11-04T04:23:31.863Z,67.52
2018-11-04T04:24:03.458Z,67.50
2018-11-04T04:24:35.085Z,67.49
2018-11-04T04:25:07.039Z,67.50
2018-11-04T04:25:38.620Z,67.59
2018-11-04T04:26:10.258Z,67.70
2018-11-04T04:26:41.852Z,67.69
2018-11-04T04:27:13.461Z,67.56
2018-11-04T04:27:45.052Z,67.62
2018-11-04T04:28:16.639Z,67.55
2018-11-04T04:28:48.232Z,67.63
2018-11-04T04:29:19.824Z,67.64
2018-11-04T04:29:51.427Z,67.80
2018-11-04T04:30:23.017Z,67.80
2018-11-04T04:30:54.639Z,67.83
2018-11-04T04:31:26.224Z,67.90
2018-11-04T04:31:57.826Z,67.90
2018-11-04T04:32:29.407Z,67.78
2018-11-04T04:33:00.995Z,67.76
2018-11-04T04:33:32.581Z,67.74
2018-11-04T04:34:04.167Z,67.71
2018-11-04T04:34:35.756Z,67.81
2018-11-04T04:35:07.372Z,67.76
2018-11-04T04:35:38.950Z,67.88
2018-11-04T04:36:10.528Z,67.75
2018-11-04T04:36:42.112Z,67.85
2018-11-04T04:37:13.705Z,67.80
2018-11-04T04:37:45.298Z,67.87
2018-11-04T04:38:16.873Z,67.69
2018-11-04T04:38:48.468Z,67.75
2018-11-04T04:39:20.056Z,67.70
2018-11-04T04:39:51.668Z,68.02
2018-11-04T04:40:23.259Z,67.92
2018-11-04T04:40:54.847Z,67.78
2018-11-04T04:41:26.450Z,67.78
2018-11-04T04:41:58.037Z,67.68
2018-11-04T04:42:29.631Z,67.68
2018-11-04T04:43:01.234Z,67.68
2018-11-04T04:43:32.814Z,67.37
2018-11-04T04:44:04.404Z,67.51
2018-11-04T04:44:36.004Z,67.20
2018-11-04T04:45:07.661Z,67.61
2018-11-04T04:45:39.274Z,67.56
2018-11-04T04:46:10.865Z,67.43
2018-11-04T04:46:42.464Z,67.32
2018-11-04T04:47:14.056Z,67.32
2018-11-04T04:47:45.639Z,67.42
2018-11-04T04:48:17.242Z,67.79
2018-11-04T04:48:48.840Z,67.61
2018-11-04T04:49:20.427Z,67.56
2018-11-04T04:49:52.053Z,67.49
2018-11-04T04:50:23.634Z,67.33
2018-11-04T04:50:55.220Z,67.42
2018-11-04T04:51:26.816Z,67.34
2018-11-04T04:51:58.404Z,67.43
2018-11-04T04:52:29.997Z,67.51
2018-11-04T04:53:01.588Z,67.18
2018-11-04T04:53:33.186Z,67.12
2018-11-04T04:54:04.779Z,67.09
2018-11-04T04:54:36.364Z,67.01
2018-11-04T04:55:07.998Z,66.99
2018-11-04T04:55:39.602Z,66.90
2018-11-04T04:56:11.183Z,66.81
2018-11-04T04:56:42.771Z,66.62
2018-11-04T04:57:14.369Z,66.84
2018-11-04T04:57:45.964Z,66.72
2018-11-04T04:58:17.552Z,66.70
2018-11-04T04:58:49.136Z,66.58
2018-11-04T04:59:20.724Z,66.53
2018-11-04T04:59:52.318Z,66.40
2018-11-04T05:00:23.928Z,66.53
2018-11-04T05:00:55.531Z,66.36
2018-11-04T05:01:27.117Z,66.43
2018-11-04T05:01:58.707Z,66.42
2018-11-04T05:02:30.292Z,66.42
2018-11-04T05:03:01.876Z,66.34
2018-11-04T05:03:33.453Z,66.30
2018-11-04T05:04:05.035Z,66.27
2018-11-04T05:04:36.610Z,66.51
2018-11-04T05:05:08.228Z,66.31
2018-11-04T05:05:39.819Z,66.41
2018-11-04T05:06:11.408Z,66.18
2018-11-04T05:06:43.021Z,66.25
2018-11-04T05:07:14.611Z,66.24
2018-11-04T05:07:46.199Z,66.21
2018-11-04T05:08:17.799Z,66.15
2018-11-04T05:08:49.392Z,66.08
2018-11-04T05:09:20.966Z,66.40
2018-11-04T05:09:52.556Z,66.24
2018-11-04T05:10:24.172Z,66.15
2018-11-04T05:10:55.761Z,66.33
2018-11-04T05:11:27.347Z,66.33
2018-11-04T05:11:58.936Z,66.11
2018-11-04T05:12:30.528Z,66.21
2018-11-04T05:13:02.130Z,66.28
2018-11-04T05:13:33.730Z,66.29
2018-11-04T05:14:05.321Z,66.19
2018-11-04T05:14:36.925Z,66.20
2018-11-04T05:15:08.558Z,66.29
2018-11-04T05:15:40.154Z,66.31
2018-11-04T05:16:11.756Z,66.30
2018-11-04T05:16:43.353Z,66.14
2018-11-04T05:17:14.940Z,66.02
2018-11-04T05:17:46.521Z,66.11
2018-11-04T05:18:18.126Z,66.12
2018-11-04T05:18:49.723Z,66.20
2018-11-04T05:19:21.323Z,66.09
2018-11-04T05:19:52.912Z,66.19
2018-11-04T05:20:24.529Z,66.12
2018-11-04T05:20:56.137Z,66.11
2018-11-04T05:21:27.725Z,66.09
2018-11-04T05:21:59.304Z,66.23
2018-11-04T05:22:30.886Z,66.17
2018-11-04T05:23:02.462Z,66.19
2018-11-04T05:23:34.062Z,66.31
2018-11-04T05:24:05.656Z,66.28
2018-11-04T05:24:37.249Z,66.30
2018-11-04T05:25:08.879Z,66.28
2018-11-04T05:25:40.482Z,66.25
2018-11-04T05:26:12.068Z,66.37
2018-11-04T05:26:43.683Z,66.29
2018-11-04T05:27:15.281Z,66.25
2018-11-04T05:27:46.858Z,66.29
2018-11-04T05:28:18.448Z,66.37
2018-11-04T05:28:50.043Z,66.30
2018-11-04T05:29:21.639Z,66.43
2018-11-04T05:29:53.218Z,66.26
2018-11-04T05:30:24.846Z,66.32
2018-11-04T05:30:56.450Z,66.22
2018-11-04T05:31:28.050Z,66.29
2018-11-04T05:31:59.648Z,66.30
2018-11-04T05:32:31.240Z,66.42
2018-11-04T05:33:02.846Z,66.58
2018-11-04T05:33:34.441Z,66.50
2018-11-04T05:34:06.029Z,66.41
2018-11-04T05:34:37.619Z,66.43
2018-11-04T05:35:09.520Z,66.38
2018-11-04T05:35:41.107Z,66.37
2018-11-04T05:36:12.696Z,66.68
2018-11-04T05:36:44.316Z,66.53
2018-11-04T05:37:15.903Z,66.63
2018-11-04T05:37:47.492Z,66.78
2018-11-04T05:38:19.099Z,66.76
2018-11-04T05:38:50.718Z,66.77
2018-11-04T05:39:22.326Z,66.81
2018-11-04T05:39:53.915Z,66.77
2018-11-04T05:40:25.518Z,66.86
2018-11-04T05:40:57.097Z,66.89
2018-11-04T05:41:28.698Z,66.94
2018-11-04T05:42:00.293Z,67.04
2018-11-04T05:42:31.875Z,67.00
2018-11-04T05:43:03.472Z,66.90
2018-11-04T05:43:35.071Z,66.85
2018-11-04T05:44:06.663Z,66.85
2018-11-04T05:44:38.252Z,66.79
2018-11-04T05:45:09.879Z,66.84
2018-11-04T05:45:41.474Z,66.94
2018-11-04T05:46:13.064Z,66.81
2018-11-04T05:46:44.651Z,66.96
2018-11-04T05:47:16.255Z,66.97
2018-11-04T05:47:47.849Z,67.29
2018-11-04T05:48:19.435Z,67.35
2018-11-04T05:48:51.009Z,67.31
2018-11-04T05:49:22.596Z,67.20
2018-11-04T05:49:54.198Z,67.24
2018-11-04T05:50:25.805Z,67.25
2018-11-04T05:50:57.395Z,67.35
2018-11-04T05:51:28.983Z,67.30
2018-11-04T05:52:00.586Z,67.29
2018-11-04T05:52:32.178Z,67.21
2018-11-04T05:53:03.778Z,67.37
2018-11-04T05:53:35.368Z,67.43
2018-11-04T05:54:06.970Z,67.36
2018-11-04T05:54:38.578Z,67.33
2018-11-04T05:55:10.191Z,67.37
2018-11-04T05:55:41.811Z,67.41
2018-11-04T05:56:13.395Z,67.34
2018-11-04T05:56:44.999Z,67.40
2018-11-04T05:57:16.584Z,67.40
2018-11-04T05:57:48.182Z,67.34
2018-11-04T05:58:19.771Z,67.30
2018-11-04T05:58:51.369Z,67.28
2018-11-04T05:59:22.978Z,67.29
2018-11-04T05:59:54.587Z,67.39
2018-11-04T06:00:26.213Z,67.36
2018-11-04T06:00:57.800Z,67.44
2018-11-04T06:01:29.399Z,67.47
2018-11-04T06:02:00.984Z,67.46
2018-11-04T06:02:32.590Z,67.50
2018-11-04T06:03:04.185Z,67.51
2018-11-04T06:03:35.767Z,67.50
2018-11-04T06:04:07.359Z,67.46
2018-11-04T06:04:38.948Z,67.39
2018-11-04T06:05:10.550Z,67.45
2018-11-04T06:05:42.145Z,67.52
2018-11-04T06:06:13.731Z,67.46
2018-11-04T06:06:45.326Z,67.83
2018-11-04T06:07:16.921Z,67.58
2018-11-04T06:07:48.530Z,67.54
2018-11-04T06:08:20.119Z,67.45
2018-11-04T06:08:51.726Z,67.45
2018-11-04T06:09:23.321Z,67.37
2018-11-04T06:09:54.890Z,67.38
2018-11-04T06:10:26.518Z,67.32
2018-11-04T06:10:58.108Z,67.16
2018-11-04T06:11:29.686Z,67.05
2018-11-04T06:12:01.286Z,66.97
2018-11-04T06:12:32.876Z,67.07
2018-11-04T06:13:04.463Z,66.92
2018-11-04T06:13:36.051Z,66.95
2018-11-04T06:14:07.639Z,67.23
2018-11-04T06:14:39.231Z,66.97
2018-11-04T06:15:11.041Z,66.66
2018-11-04T06:15:42.637Z,66.88
2018-11-04T06:16:14.227Z,66.97
2018-11-04T06:16:45.818Z,67.01
2018-11-04T06:17:17.418Z,66.95
2018-11-04T06:17:49.007Z,66.67
2018-11-04T06:18:20.605Z,66.66
2018-11-04T06:18:52.196Z,66.70
2018-11-04T06:19:23.822Z,66.53
2018-11-04T06:19:55.414Z,66.63
2018-11-04T06:20:27.008Z,66.56
2018-11-04T06:20:58.598Z,66.76
2018-11-04T06:21:30.188Z,66.62
2018-11-04T06:22:01.791Z,66.45
2018-11-04T06:22:33.391Z,66.46
2018-11-04T06:23:04.980Z,66.44
2018-11-04T06:23:36.594Z,66.57
2018-11-04T06:24:08.184Z,66.55
2018-11-04T06:24:39.771Z,66.57
2018-11-04T06:25:11.373Z,66.60
2018-11-04T06:25:42.963Z,66.74
2018-11-04T06:26:14.562Z,66.56
2018-11-04T06:26:46.158Z,66.57
2018-11-04T06:27:17.798Z,67.01
2018-11-04T06:27:49.402Z,66.72
2018-11-04T06:28:21.001Z,66.63
2018-11-04T06:28:52.600Z,66.60
2018-11-04T06:29:24.197Z,66.87
2018-11-04T06:29:55.784Z,66.70
2018-11-04T06:30:27.372Z,66.69
2018-11-04T06:30:59.001Z,66.72
2018-11-04T06:31:30.592Z,66.76
2018-11-04T06:32:02.202Z,66.79
2018-11-04T06:32:33.792Z,66.69
2018-11-04T06:33:05.366Z,66.87
2018-11-04T06:33:36.965Z,66.67
2018-11-04T06:34:08.571Z,66.65
2018-11-04T06:34:40.235Z,66.54
2018-11-04T06:35:11.765Z,66.50
2018-11-04T06:35:43.355Z,66.33
2018-11-04T06:36:14.982Z,66.30
2018-11-04T06:36:46.581Z,66.10
2018-11-04T06:37:18.193Z,66.18
2018-11-04T06:37:49.793Z,66.12
2018-11-04T06:38:21.390Z,66.11
2018-11-04T06:38:52.975Z,66.05
2018-11-04T06:39:24.573Z,66.09
2018-11-04T06:39:56.179Z,66.06
2018-11-04T06:40:27.797Z,66.09
2018-11-04T06:40:59.462Z,66.34
2018-11-04T06:41:31.030Z,66.42
2018-11-04T06:42:02.630Z,66.21
2018-11-04T06:42:34.223Z,66.21
2018-11-04T06:43:05.859Z,66.26
2018-11-04T06:43:37.434Z,66.23
2018-11-04T06:44:09.033Z,66.28
2018-11-04T06:44:40.620Z,66.26
2018-11-04T06:45:12.221Z,66.15
2018-11-04T06:45:43.821Z,66.25
2018-11-04T06:46:15.431Z,66.28
2018-11-04T06:46:47.008Z,66.30